ראשי / חיפושים אחרונים

חיפושים אחרונים

לוחית
סוג רכב
דגם
שנה
תאריך חיפוש
שעת חיפוש
59333301 ב מ וו גרמניה 745 LE 2019 02/09/2026 07:46:43
8762715 וולבו בלגיה - 2002 02/09/2026 07:46:43
82998202 טויוטה יפן LAND CRUISER 2022 02/09/2026 07:46:41
1043674 מרצדס גרמניה C180 CGI 2010 02/09/2026 07:46:39
4292570 מרוטי סוזוקי הודו ALTO 2010 02/09/2026 07:46:38
2984115 אלון מתכת - 1999 02/09/2026 07:46:35
3739078 וולבו בלגיה - 2012 02/09/2026 07:46:34
4265271 מזדה יפן MAZDA 5 2010 02/09/2026 07:46:32
2688762 דייהטסו יפן TERIOS 2007 02/09/2026 07:46:32
1241010 טויוטה יפן COROLLA 2001 02/09/2026 07:46:31
58854102 פולקסווגן גרמניה PASSAT 2021 02/09/2026 07:46:30
72352503 אאודי גרמניה Q2 2024 02/09/2026 07:46:30
3100866 מיצובישי יפן LANCER 2008 02/09/2026 07:46:28
19494102 טויוטה טורקיה C-HR HYBRID 2020 02/09/2026 07:46:27
25759004 מרצדס ארהב" GLE COUPE 2025 02/09/2026 07:46:24
3356334 יונדאי קוריאה הדרומית I35 2015 02/09/2026 07:46:22
3372514 מזדה יפן MAZDA3-SPORT 2005 02/09/2026 07:46:22
4176711 יונדאי קוריאה הדרומית I25 2013 02/09/2026 07:46:20
3346530 מזדה תאילנד MAZDA 2 2017 02/09/2026 07:46:20
1519768 סוזוקי יפן SX4 2009 02/09/2026 07:46:19
3080875 שברולט ארהב" - 2011 02/09/2026 07:46:16
1438952 טויוטה יפן PRIUS HYBRID 2013 02/09/2026 07:46:15
4250323 מזדה יפן 323 LANTIS 2000 02/09/2026 07:46:14
2925579 רנו טורקיה FLUENCE 2012 02/09/2026 07:46:13
6923934 פיג'ו צ'כיה 108 2015 02/09/2026 07:46:13
4253666 מיצובישי יפן LANCER 2008 02/09/2026 07:46:12
3286475 שברולט ארהב" - 2011 02/09/2026 07:46:08
32369004 קופרה ספרד FORMENTOR 2025 02/09/2026 07:46:07
32369004 קופרה ספרד FORMENTOR 2025 02/09/2026 07:46:07
2914869 מזדה יפן MAZDA3-SPORT 2009 02/09/2026 07:46:05
4669061 פורד ספרד FOCUS 2007 02/09/2026 07:46:04
3367979 ניסאן בריטניה JUKE 2012 02/09/2026 07:46:02
9965133 מיצובישי תאילנד SPACE STAR 2015 02/09/2026 07:46:00
5639670 הונדה בריטניה CR-V 2010 02/09/2026 07:45:59
1034085 קיה סלובקיה SPORTAGE 2016 02/09/2026 07:45:58
60194403 רנו טורקיה MEGANE 2024 02/09/2026 07:45:57
9262568 פורשה גרמניה - 2008 02/09/2026 07:45:57
33189003 דאצ'יה רומניה DUSTER 2023 02/09/2026 07:45:56
32369004 קופרה ספרד FORMENTOR 2025 02/09/2026 07:45:55
6413470 הונדה בריטניה CIVIC 2010 02/09/2026 07:45:52
2493560 הונדה יפן CIVIC 2006 02/09/2026 07:45:52
3320323 סובארו יפן IMPREZA NEW 2004 02/09/2026 07:45:52
3356334 יונדאי קוריאה הדרומית I35 2015 02/09/2026 07:45:50
6085174 מרצדס ספרד VIANO 3.0 CDI 2011 02/09/2026 07:45:49
7704078 יונדאי קוריאה הדרומית I35 2012 02/09/2026 07:45:49
4717839 סיטרואן ספרד BERLINGO 2016 02/09/2026 07:45:48
90986801 מרצדס גרמניה C200 CDI 2008 02/09/2026 07:45:47
4689576 מיצובישי יפן LANCER 2012 02/09/2026 07:45:46
8109271 טויוטה יפן LAND CRUISER 2010 02/09/2026 07:45:44
31307903 מזדה יפן MAZDA CX-5 2023 02/09/2026 07:45:43
16075404 סובארו יפן CROSSTREK 2025 02/09/2026 07:45:43
2493560 הונדה יפן CIVIC 2006 02/09/2026 07:45:42
3771560 פולקסווגן גרמניה PASSAT 2007 02/09/2026 07:45:40
4350208 וולבו שבדיה - 2016 02/09/2026 07:45:40
9237151 יונדאי קוריאה ACCENT 2003 02/09/2026 07:45:38
7060058 סובארו יפן IMPREZA 2005 02/09/2026 07:45:36
4650762 רנו טורקיה MEGANE II 2007 02/09/2026 07:45:36
6546966 יונדאי טורקיה MATRIX 2009 02/09/2026 07:45:34
66207401 סיאט צ'כיה ATECA 2019 02/09/2026 07:45:33
1412411 יונדאי הודו I10 2013 02/09/2026 07:45:32
1379234 מיצובישי תאילנד L200 2015 02/09/2026 07:45:31
3356334 יונדאי קוריאה הדרומית I35 2015 02/09/2026 07:45:29
2878335 סיטרואן צרפת XSARA 2 2001 02/09/2026 07:45:28
3100866 מיצובישי יפן LANCER 2008 02/09/2026 07:45:27
2842052 קיה קוריאה הדרומית RIO 2013 02/09/2026 07:45:26
2896250 דייהטסו יפן SIRION 2006 02/09/2026 07:45:26
4255757 פיג'ו צרפת 307 2005 02/09/2026 07:45:24
3770474 טויוטה יפן COROLLA 2010 02/09/2026 07:45:23
4253814 יונדאי קוריאה הדרומית GETZ 2006 02/09/2026 07:45:22
88070502 מרצדס הונגריה CLA180 2022 02/09/2026 07:45:21
2875938 סקודה צ'כיה OCTAVIA 2016 02/09/2026 07:45:20
28463303 רנו קוריאה הדרומית ARKANA 2022 02/09/2026 07:45:20
83547403 יונדאי קוריאה הדרומית ELANTRA HEV 2024 02/09/2026 07:45:19
8996737 ניסאן יפן X-TRAIL 2016 02/09/2026 07:45:18
13106801 קיה סלובקיה SPORTAGE 2017 02/09/2026 07:45:18
1404814 רנו טורקיה MEGANE II 2006 02/09/2026 07:45:18
4705837 יונדאי טורקיה I10 2016 02/09/2026 07:45:17
57958903 טסלה סין MODEL 3 2023 02/09/2026 07:45:15
9777878 רנו צרפת KANGOO 2017 02/09/2026 07:45:13
6606053 אאודי הונגריה A3 2015 02/09/2026 07:45:13
31017803 טסלה ארהב" MODEL S 2022 02/09/2026 07:45:12
39486204 דאצ'יה רומניה LOGAN 2025 02/09/2026 07:45:12
20490902 מיצובישי יפן ASX 2021 02/09/2026 07:45:09
3893939 שברולט קוריאה הדרומית SPARK 2016 02/09/2026 07:45:09
2202250 הונדה יפן CIVIC 2003 02/09/2026 07:45:08
2202250 הונדה יפן CIVIC 2003 02/09/2026 07:45:08
8818763 פיאט טורקיה DOBLO 2008 02/09/2026 07:45:04
2029979 פיאג'ו איטליה - 2013 02/09/2026 07:45:04
4289511 יונדאי טורקיה I20 2013 02/09/2026 07:45:02
66517702 טויוטה יפן RAV 4 HYBRID 2021 02/09/2026 07:45:02
4673513 אלפא רומיאו איטליה ALFA MITO 2012 02/09/2026 07:45:01
3359431 יונדאי קוריאה הדרומית I35 2014 02/09/2026 07:44:58
2202250 הונדה יפן CIVIC 2003 02/09/2026 07:44:57
75920804 זיקר סין ZEEKR 7X 2026 02/09/2026 07:44:56
32696402 טויוטה תאילנד HILUX 2021 02/09/2026 07:44:54
55300001 מרצדס גרמניה A250 2019 02/09/2026 07:44:53
51298402 שברולט מקסיקו EQUINOX 2021 02/09/2026 07:44:52
57958903 טסלה סין MODEL 3 2023 02/09/2026 07:44:50
27655901 מרצדס גרמניה E300E 2020 02/09/2026 07:44:47
7790567 הונדה טורקיה CIVIC 2008 02/09/2026 07:44:45
9350368 פורד ארהב" - 2008 02/09/2026 07:44:45
4478379 קיה קוריאה הדרומית PICANTO 2012 02/09/2026 07:44:44
1119737 טויוטה צרפת YARIS 2016 02/09/2026 07:44:44
8878176 סקודה צ'כיה ROOMSTER 2012 02/09/2026 07:44:43
56265901 יוטונג סין - 2018 02/09/2026 07:44:43
7954776 פולקסווגן ספרד POLO 2012 02/09/2026 07:44:42
86338101 גולדן דרגון סי - 2019 02/09/2026 07:44:42
9559728 סוזוקי יפן IGNIS 2006 02/09/2026 07:44:40
57958903 טסלה סין MODEL 3 2023 02/09/2026 07:44:39
1914973 מיצובישי יפן OUTLANDER 2010 02/09/2026 07:44:36
4678631 יונדאי צ'כיה I30 2014 02/09/2026 07:44:36
3759869 מזדה יפן MAZDA 2 2009 02/09/2026 07:44:35
1083010 טויוטה יפן HILUX 2001 02/09/2026 07:44:33
5238111 מיצובישי תאילנד L200 2013 02/09/2026 07:44:32
3818771 מזדה יפן MAZDA 3 2010 02/09/2026 07:44:32
3968374 טויוטה יפן COROLLA 2010 02/09/2026 07:44:30
2854233 ניסאן ספרד NV200 2015 02/09/2026 07:44:30
62243902 מיצובישי תאילנד L200 2021 02/09/2026 07:44:29
6902985 קיה סלובקיה CEED 2017 02/09/2026 07:44:28
57958903 טסלה סין MODEL 3 2023 02/09/2026 07:44:28
3100866 מיצובישי יפן LANCER 2008 02/09/2026 07:44:27
1035714 רנו צרפת SCENIC II 2005 02/09/2026 07:44:26
4789932 טויוטה טורקיה COROLLA 2015 02/09/2026 07:44:26
4236079 ניסאן הודו MICRA 2012 02/09/2026 07:44:24
4628276 מיצובישי תאילנד L200 2012 02/09/2026 07:44:22
3348776 מיצובישי יפן OUTLANDER 2011 02/09/2026 07:44:20
56421004 פולריס - 2026 02/09/2026 07:44:19
60194403 רנו טורקיה MEGANE 2024 02/09/2026 07:44:19
3770362 מזדה תאילנד BT 50 2007 02/09/2026 07:44:18
1043178 ב מ וו גרמניה 118I 2012 02/09/2026 07:44:15
61539402 מרצדס בנץ גרמנ - 2022 02/09/2026 07:44:15
7214657 איסוזו תאילנד PICK-UP 2004 02/09/2026 07:44:14
9713063 סוזוקי יפן SWIFT 2008 02/09/2026 07:44:14
8281278 יונדאי קוריאה הדרומית I35 2012 02/09/2026 07:44:12
5621175 מזדה יפן MAZDA 3 2012 02/09/2026 07:44:10
2925727 פיאט איטליה MAREA 1998 02/09/2026 07:44:10
4667617 הונדה יפן ACCORD 1999 02/09/2026 07:44:06
4296658 פיאט איטליה PUNTO 16V 2005 02/09/2026 07:44:05
3298038 פולקסווגן גרמניה GOLF 2016 02/09/2026 07:44:05
45782202 אאודי גרמניה A3 SPORTBACK 2021 02/09/2026 07:44:04
9027669 קאדילאק ארהב" - 1980 02/09/2026 07:44:04
2341379 פיאג'ו איטליה - 2013 02/09/2026 07:44:04
3371811 מיצובישי יפן OUTLANDER 2013 02/09/2026 07:44:01
4236959 סובארו יפן XV 2014 02/09/2026 07:44:00
3769471 מזדה יפן MAZDA 3 2010 02/09/2026 07:43:58
1181538 סוזוקי הונגריה VITARA 2016 02/09/2026 07:43:56
47181003 צ'רי סין TIGGO 8 PRO 2023 02/09/2026 07:43:56
68928003 קיה קוריאה הדרומית PICANTO 2024 02/09/2026 07:43:54
7322569 שברולט ארהב" MALIBU 2009 02/09/2026 07:43:53
5496261 סובארו יפן B4 2007 02/09/2026 07:43:53
7322569 שברולט ארהב" MALIBU 2009 02/09/2026 07:43:53
1002131 מרצדס גרמניה GLK350 4MATIC 2014 02/09/2026 07:43:52
48944203 סיטרואן ספרד BERLINGO 2023 02/09/2026 07:43:51
15673404 טויוטה צרפת YARIS CROSS HSD 2025 02/09/2026 07:43:50
1221273 יונדאי צ'כיה I30 2010 02/09/2026 07:43:48
7322569 שברולט ארהב" MALIBU 2009 02/09/2026 07:43:46
67347902 מרצדס בנץ גרמנ - 2021 02/09/2026 07:43:45
31351303 לינק אנד קו סין LYNKCO 01 2023 02/09/2026 07:43:43
27710503 מרצדס בנץ גרמנ - 2024 02/09/2026 07:43:42
7733886 טויוטה טורקיה C-HR HYBRID 2017 02/09/2026 07:43:40
1176230 דייהטסו יפן אפלאוזILG-אוטו' 1997 02/09/2026 07:43:39
36184304 ג'אקו סין JAECOO7 PHEV 2025 02/09/2026 07:43:38
60194403 רנו טורקיה MEGANE 2024 02/09/2026 07:43:35
61518202 מרצדס בנץ גרמנ - 2022 02/09/2026 07:43:33
4287538 סקודה צ'כיה NEW YETI 2016 02/09/2026 07:43:32
1706876 מזדה יפן CX-5 2013 02/09/2026 07:43:31
9276028 סוזוקי יפן ליאנה 2005 02/09/2026 07:43:27
6900055 מרצדס גרמניה S63 4MATIC AMG 2017 02/09/2026 07:43:27
3100866 מיצובישי יפן LANCER 2008 02/09/2026 07:43:26
4162770 סוזוקי יפן SX4 2010 02/09/2026 07:43:25
67266401 הונדה יפן HR-V 2019 02/09/2026 07:43:25
3362575 שברולט ד.קוריא CRUZE 1.8 LT 2011 02/09/2026 07:43:24
38834804 טסלה סין MODEL Y 2026 02/09/2026 07:43:23
68542603 הייגר סין - 2024 02/09/2026 07:43:23
6554632 פיאט פולין FIAT 500 1.2 2014 02/09/2026 07:43:22
84051902 סיאט ספרד ARONA 2022 02/09/2026 07:43:21
2308823 סובארו יפן IMPREZA TURBO 2000 02/09/2026 07:43:20
9046254 מזדה תאילנד MAZDA 2 2016 02/09/2026 07:43:19
4942958 מזדה יפן MAZDA3 2005 02/09/2026 07:43:16
76635603 צ'רי סין TIGGO 8 PRO 2024 02/09/2026 07:43:14
21338201 ניסאן יפן X-TRAIL 2018 02/09/2026 07:43:13
2854450 דייהטסו יפן SIRION 2006 02/09/2026 07:43:08
4685557 רנו צרפת KANGOO 2005 02/09/2026 07:43:07
30690603 וולבו שבדיה - 2023 02/09/2026 07:43:06
8852366 טויוטה יפן COROLLA 2009 02/09/2026 07:43:05
85322602 גילי סין GEOMETRY C 2022 02/09/2026 07:43:04
1151932 יונדאי טורקיה I10 2014 02/09/2026 07:43:03
6038860 מזדה יפן MAZDA 5 2006 02/09/2026 07:43:02
76273603 בי ווי די סין BYD DOLPHIN 2024 02/09/2026 07:43:01
74915602 איסוזו יפן - 2022 02/09/2026 07:42:59
17772102 סקודה צ'כיה KODIAQ 2020 02/09/2026 07:42:57
2849219 דייהו ד. קוריאה אספרו 0081גיר רגיל 1996 02/09/2026 07:42:52
8085557 מזדה יפן CX5 2014 02/09/2026 07:42:50
34917102 הונדה יפן - 2021 02/09/2026 07:42:49
2939730 יונדאי קוריאה הדרומית I35 2014 02/09/2026 07:42:46
66786001 אאודי גרמניה A5 SPORTBACK 2019 02/09/2026 07:42:46
2452312 סקודה צ'כיה SUPERB 2012 02/09/2026 07:42:44
2382167 פולקסווגן פורטוגל EOS 2009 02/09/2026 07:42:43
7336386 טויוטה טורקיה COROLLA 2017 02/09/2026 07:42:42
1058775 פיג'ו סלובקיה 207 2011 02/09/2026 07:42:42
וואטסאפ